Time;durP1;ratioP1;P1;durP2;ratioP2;P2;SDS_P1;SDS_P2;PMS_P1;PMS_P2;Temp;Humidity;BMP_temperature;BMP_pressure;BME280_temperature;BME280_humidity;BME280_pressure;Samples;Min_cycle;Max_cycle;Signal;HPM_P1;HPM_P2
2021/10/22 00:01:09;;;;;;;60.15;42.70;;;16.90;95.80;;;;;;5033666;28;20541;-64
2021/10/22 00:03:35;;;;;;;61.53;41.90;;;16.80;95.60;;;;;;5030784;28;20037;-64
2021/10/22 00:06:01;;;;;;;59.38;40.58;;;16.80;95.50;;;;;;5037442;28;20487;-64
2021/10/22 00:08:26;;;;;;;64.50;42.78;;;16.80;95.50;;;;;;5034274;28;20029;-64
2021/10/22 00:10:52;;;;;;;58.88;40.75;;;16.80;95.40;;;;;;5044053;28;20052;-64
2021/10/22 00:13:19;;;;;;;58.85;42.10;;;16.70;95.50;;;;;;5044261;28;20044;-63
2021/10/22 00:15:44;;;;;;;57.25;42.58;;;16.80;95.50;;;;;;5033120;28;20033;-64
2021/10/22 00:18:10;;;;;;;60.05;41.97;;;16.70;95.40;;;;;;5032025;28;20033;-64
2021/10/22 00:20:36;;;;;;;61.65;41.42;;;16.50;95.40;;;;;;5033123;28;20037;-64
2021/10/22 00:23:02;;;;;;;62.67;41.55;;;16.60;95.50;;;;;;5044953;28;20119;-64
2021/10/22 00:25:28;;;;;;;60.15;42.25;;;16.60;95.60;;;;;;5035960;28;20025;-64
2021/10/22 00:27:53;;;;;;;64.45;42.03;;;16.50;95.30;;;;;;5032259;28;20041;-64
2021/10/22 00:30:19;;;;;;;62.42;42.47;;;16.60;95.50;;;;;;5033007;28;20075;-64
2021/10/22 00:32:45;;;;;;;57.08;40.95;;;16.50;95.50;;;;;;5041984;28;20028;-64
2021/10/22 00:35:10;;;;;;;58.92;42.15;;;16.50;95.50;;;;;;5037789;28;20053;-64
2021/10/22 00:37:36;;;;;;;58.25;40.67;;;16.40;95.40;;;;;;5032127;28;20033;-63
2021/10/22 00:40:03;;;;;;;61.50;40.67;;;16.50;95.40;;;;;;5045158;28;20032;-63
2021/10/22 00:42:28;;;;;;;52.45;38.45;;;16.50;95.60;;;;;;5050933;28;20112;-64
2021/10/22 00:44:54;;;;;;;49.22;37.30;;;16.50;95.80;;;;;;5040515;28;20056;-63
2021/10/22 00:47:20;;;;;;;49.63;36.97;;;16.40;96.00;;;;;;5032016;28;20098;-64
2021/10/22 00:49:46;;;;;;;43.95;35.17;;;16.40;96.10;;;;;;5032877;28;20025;-64
2021/10/22 00:52:14;;;;;;;47.63;35.97;;;16.40;95.90;;;;;;5035489;28;20032;-63
2021/10/22 00:54:40;;;;;;;43.67;34.17;;;16.40;96.00;;;;;;5044313;28;20041;-63
2021/10/22 00:57:06;;;;;;;47.00;33.72;;;16.20;96.30;;;;;;5035944;28;20418;-64
2021/10/22 00:59:33;;;;;;;42.55;33.63;;;16.20;96.30;;;;;;5035401;28;20030;-64
2021/10/22 01:01:58;;;;;;;45.33;35.55;;;16.10;96.40;;;;;;5037297;28;20469;-64
2021/10/22 01:04:24;;;;;;;40.75;33.85;;;16.10;96.40;;;;;;5035693;28;20029;-64
2021/10/22 01:06:50;;;;;;;41.30;32.80;;;16.10;96.30;;;;;;5036678;28;20037;-64
2021/10/22 01:09:30;;;;;;;43.55;34.42;;;16.20;96.30;;;;;;5056500;28;20056;-64
2021/10/22 01:12:03;;;;;;;42.85;33.22;;;16.20;96.10;;;;;;5052823;28;20779;-64
2021/10/22 01:14:44;;;;;;;40.28;32.25;;;16.20;95.90;;;;;;5036099;28;20041;-64
2021/10/22 01:17:33;;;;;;;44.80;34.42;;;16.20;96.00;;;;;;5019185;28;20046;-64
2021/10/22 01:19:58;;;;;;;37.70;31.40;;;16.20;95.70;;;;;;5016837;28;20026;-64
2021/10/22 01:22:24;;;;;;;46.47;33.28;;;16.30;95.80;;;;;;5023873;28;20032;-64
2021/10/22 01:24:50;;;;;;;37.85;31.20;;;16.20;95.50;;;;;;5052093;28;20025;-64
2021/10/22 01:27:16;;;;;;;39.22;32.60;;;16.00;95.80;;;;;;5043049;28;20032;-64
2021/10/22 01:29:42;;;;;;;43.03;32.53;;;16.10;95.80;;;;;;5056068;28;20104;-64
2021/10/22 01:32:10;;;;;;;38.15;32.25;;;16.10;95.60;;;;;;5052597;28;20028;-64
2021/10/22 01:34:35;;;;;;;43.55;33.60;;;16.20;95.50;;;;;;5035525;28;20049;-64
2021/10/22 01:37:01;;;;;;;40.88;33.15;;;16.00;95.40;;;;;;5034413;28;20040;-64
2021/10/22 01:39:27;;;;;;;38.70;30.27;;;16.00;95.30;;;;;;5054686;28;20103;-64
2021/10/22 01:41:52;;;;;;;38.40;31.88;;;15.90;95.20;;;;;;5054317;28;20020;-64
2021/10/22 01:44:23;;;;;;;41.50;31.13;;;16.00;95.30;;;;;;5030659;28;20030;-64
2021/10/22 01:46:49;;;;;;;40.08;31.00;;;16.00;95.20;;;;;;5016060;28;20018;-64
2021/10/22 01:49:15;;;;;;;38.67;31.35;;;16.00;95.20;;;;;;5051860;28;20116;-64
2021/10/22 01:51:40;;;;;;;37.55;30.35;;;16.00;95.20;;;;;;5055661;28;20052;-64
2021/10/22 01:54:06;;;;;;;39.22;31.23;;;16.00;95.10;;;;;;5036428;28;20131;-64
2021/10/22 01:56:32;;;;;;;38.80;31.02;;;16.00;95.30;;;;;;5035684;28;20021;-64
2021/10/22 01:58:58;;;;;;;36.88;31.25;;;16.00;95.00;;;;;;5050650;28;20070;-64
2021/10/22 02:01:25;;;;;;;41.47;29.23;;;15.80;95.40;;;;;;5055662;28;20023;-64
2021/10/22 02:03:56;;;;;;;37.40;29.67;;;15.80;95.20;;;;;;5045303;28;20029;-64
2021/10/22 02:06:22;;;;;;;40.10;30.52;;;15.90;95.40;;;;;;5034404;28;20022;-64
2021/10/22 02:08:48;;;;;;;39.80;30.23;;;16.00;95.20;;;;;;5034268;28;20061;-64
2021/10/22 02:11:14;;;;;;;41.53;33.22;;;16.00;95.30;;;;;;5034832;28;20437;-64
2021/10/22 02:13:40;;;;;;;38.20;31.50;;;15.80;95.20;;;;;;5028811;28;20041;-64
2021/10/22 02:16:06;;;;;;;38.85;32.10;;;16.00;95.00;;;;;;5035146;28;20383;-64
2021/10/22 02:18:31;;;;;;;40.97;30.38;;;15.80;94.90;;;;;;5039189;28;20184;-64
2021/10/22 02:20:57;;;;;;;38.25;31.13;;;15.90;95.00;;;;;;5035199;28;20026;-63
2021/10/22 02:23:22;;;;;;;39.17;31.95;;;15.70;95.20;;;;;;5033046;28;20491;-63
2021/10/22 02:25:48;;;;;;;35.85;29.90;;;15.70;95.40;;;;;;5035114;28;20467;-63
2021/10/22 02:28:14;;;;;;;38.78;30.65;;;15.80;95.00;;;;;;5034150;28;20037;-63
2021/10/22 02:30:45;;;;;;;34.17;28.65;;;15.80;95.20;;;;;;5035063;28;20129;-63
2021/10/22 02:33:11;;;;;;;36.53;29.42;;;15.80;95.00;;;;;;5040623;28;20033;-63
2021/10/22 02:35:37;;;;;;;35.28;29.08;;;15.60;95.40;;;;;;5034388;28;20072;-64
2021/10/22 02:38:04;;;;;;;38.28;31.13;;;15.70;95.20;;;;;;5040862;28;20021;-64
2021/10/22 02:40:29;;;;;;;37.63;30.50;;;15.70;95.30;;;;;;5054960;28;20032;-64
2021/10/22 02:42:55;;;;;;;33.72;29.08;;;15.70;94.70;;;;;;5052901;28;20017;-63
2021/10/22 02:45:24;;;;;;;39.03;30.08;;;15.60;95.40;;;;;;5037069;28;20026;-64
2021/10/22 02:47:49;;;;;;;35.85;29.27;;;15.60;95.40;;;;;;5038086;28;20070;-63
2021/10/22 02:50:17;;;;;;;38.33;31.30;;;15.70;95.10;;;;;;5053072;28;20068;-63
2021/10/22 02:52:43;;;;;;;36.72;30.25;;;15.70;95.10;;;;;;5050838;28;20036;-64
2021/10/22 02:55:09;;;;;;;37.90;29.63;;;15.60;95.20;;;;;;5032039;28;20033;-63
2021/10/22 02:57:35;;;;;;;36.20;28.90;;;15.60;95.30;;;;;;5032462;28;20038;-63
2021/10/22 03:00:02;;;;;;;35.03;29.63;;;15.50;95.20;;;;;;5033626;28;20021;-63
2021/10/22 03:02:27;;;;;;;35.05;29.88;;;15.60;95.40;;;;;;5032548;28;20033;-64
2021/10/22 03:04:53;;;;;;;35.83;29.73;;;15.70;95.50;;;;;;5046676;28;20026;-63
2021/10/22 03:07:18;;;;;;;38.75;29.70;;;15.70;95.50;;;;;;5033379;28;20501;-63
2021/10/22 03:09:44;;;;;;;35.38;29.15;;;15.60;95.30;;;;;;5053615;28;20059;-64
2021/10/22 03:12:10;;;;;;;35.42;28.08;;;15.50;95.50;;;;;;5054259;28;20035;-64
2021/10/22 03:14:35;;;;;;;33.08;28.92;;;15.60;95.40;;;;;;5033440;28;20037;-63
2021/10/22 03:17:01;;;;;;;35.63;29.67;;;15.70;95.70;;;;;;5032525;28;20021;-64
2021/10/22 03:19:26;;;;;;;31.85;27.10;;;15.60;95.70;;;;;;5033359;28;20042;-63
2021/10/22 03:21:52;;;;;;;31.50;27.60;;;15.70;95.50;;;;;;5034108;28;20033;-64
2021/10/22 03:24:18;;;;;;;31.05;25.83;;;15.70;95.40;;;;;;5047360;28;20458;-64
2021/10/22 03:26:45;;;;;;;35.60;28.83;;;15.70;95.20;;;;;;5034256;28;20033;-64
2021/10/22 03:29:10;;;;;;;32.72;28.58;;;15.70;95.20;;;;;;5032817;28;20132;-64
2021/10/22 03:31:51;;;;;;;33.13;29.20;;;15.70;95.20;;;;;;5033664;28;20499;-64
2021/10/22 03:34:17;;;;;;;34.75;27.52;;;15.70;95.50;;;;;;5046966;28;20466;-64
2021/10/22 03:36:42;;;;;;;34.65;27.83;;;15.80;95.30;;;;;;5034496;28;20079;-64
2021/10/22 03:39:08;;;;;;;32.67;26.80;;;15.80;95.30;;;;;;5032802;28;20045;-64
2021/10/22 03:41:34;;;;;;;32.72;27.40;;;15.70;95.20;;;;;;5033545;28;20471;-64
2021/10/22 03:43:59;;;;;;;30.40;26.27;;;15.70;95.10;;;;;;5044186;28;20062;-64
2021/10/22 03:46:25;;;;;;;37.95;29.08;;;15.80;95.10;;;;;;5035593;28;20033;-64
2021/10/22 03:48:51;;;;;;;37.53;28.98;;;15.70;95.50;;;;;;5032862;28;20101;-64
2021/10/22 03:51:16;;;;;;;40.28;29.40;;;15.70;95.40;;;;;;5033398;28;20021;-64
2021/10/22 03:53:42;;;;;;;41.65;31.98;;;15.70;95.50;;;;;;5026776;28;20041;-64
2021/10/22 03:56:08;;;;;;;39.15;28.98;;;15.60;95.80;;;;;;5026489;28;20021;-64
2021/10/22 03:58:33;;;;;;;40.70;30.00;;;15.50;96.40;;;;;;5032295;28;20144;-64
2021/10/22 04:00:59;;;;;;;39.03;30.63;;;15.40;96.70;;;;;;5033190;28;20017;-64
2021/10/22 04:03:24;;;;;;;43.03;31.08;;;15.50;96.50;;;;;;5042204;28;20470;-64
2021/10/22 04:05:50;;;;;;;40.22;31.23;;;15.70;96.10;;;;;;5043023;28;20029;-64
2021/10/22 04:08:16;;;;;;;43.97;32.17;;;15.60;96.30;;;;;;5030681;28;20112;-64
2021/10/22 04:10:43;;;;;;;39.78;30.98;;;15.60;96.10;;;;;;5031790;28;20545;-65
2021/10/22 04:13:12;;;;;;;39.95;31.35;;;15.60;96.00;;;;;;5030084;28;20029;-64
2021/10/22 04:15:41;;;;;;;45.17;34.00;;;15.70;96.00;;;;;;5031102;28;20022;-64
2021/10/22 04:18:08;;;;;;;48.25;33.33;;;15.60;96.00;;;;;;5030912;28;20101;-64
2021/10/22 04:20:34;;;;;;;46.60;33.33;;;15.70;96.00;;;;;;5033047;28;20053;-64
2021/10/22 04:23:00;;;;;;;45.22;33.95;;;15.60;95.90;;;;;;5036178;28;20409;-64
2021/10/22 04:25:26;;;;;;;47.28;33.30;;;15.60;95.90;;;;;;5046173;28;20079;-64
2021/10/22 04:27:52;;;;;;;46.45;33.53;;;15.70;95.80;;;;;;5035756;28;20100;-64
2021/10/22 04:30:17;;;;;;;46.05;33.45;;;15.70;96.10;;;;;;5052765;28;20063;-64
2021/10/22 04:32:43;;;;;;;45.50;33.88;;;15.70;95.90;;;;;;5048128;28;20052;-64
2021/10/22 04:35:09;;;;;;;44.42;31.40;;;15.60;96.40;;;;;;5032179;28;20062;-64
2021/10/22 04:40:34;;;;;;;46.75;32.95;;;15.50;96.70;;;;;;5042573;28;20068;-64
2021/10/22 04:43:12;;;;;;;40.60;30.65;;;15.50;96.60;;;;;;5044531;28;20056;-64
2021/10/22 04:45:39;;;;;;;44.75;32.90;;;15.50;97.00;;;;;;5032316;28;20022;-64
2021/10/22 04:48:07;;;;;;;42.50;32.00;;;15.60;96.60;;;;;;5031706;28;20029;-64
2021/10/22 04:50:33;;;;;;;42.80;30.95;;;15.50;96.80;;;;;;5032926;28;20030;-64
2021/10/22 04:53:00;;;;;;;42.95;32.38;;;15.40;96.90;;;;;;5033911;28;20499;-64
2021/10/22 04:55:28;;;;;;;44.53;32.13;;;15.40;96.80;;;;;;5052450;28;20021;-64
2021/10/22 04:58:15;;;;;;;46.92;33.33;;;15.50;96.50;;;;;;5030722;28;20029;-64
2021/10/22 05:00:41;;;;;;;44.33;33.78;;;15.40;96.50;;;;;;5013900;28;20029;-64
2021/10/22 05:03:06;;;;;;;38.83;31.48;;;15.30;96.50;;;;;;5013068;28;20344;-64
2021/10/22 05:05:32;;;;;;;41.17;32.53;;;15.40;96.40;;;;;;5047111;28;20051;-64
2021/10/22 05:07:58;;;;;;;37.65;30.30;;;15.50;96.20;;;;;;5035368;28;20029;-64
2021/10/22 05:10:23;;;;;;;38.15;30.63;;;15.50;96.10;;;;;;5031526;28;20040;-64
2021/10/22 05:12:49;;;;;;;42.28;29.85;;;15.40;95.90;;;;;;5031049;28;20076;-64
2021/10/22 05:15:14;;;;;;;43.35;32.22;;;15.50;95.80;;;;;;5046125;28;20040;-64
2021/10/22 05:17:40;;;;;;;40.28;31.15;;;15.60;96.00;;;;;;5025629;28;20058;-64
2021/10/22 05:20:08;;;;;;;40.60;31.00;;;15.40;95.90;;;;;;5038864;28;20088;-64
2021/10/22 05:22:38;;;;;;;36.47;29.02;;;15.40;96.40;;;;;;5052149;28;20060;-64
2021/10/22 05:25:05;;;;;;;38.72;31.23;;;15.50;96.20;;;;;;5018233;28;20044;-64
2021/10/22 05:27:31;;;;;;;38.08;30.30;;;15.50;96.10;;;;;;5031839;28;20478;-64
2021/10/22 05:29:56;;;;;;;39.03;30.55;;;15.60;95.90;;;;;;5031283;28;20029;-64
2021/10/22 05:32:22;;;;;;;39.90;30.35;;;15.70;95.80;;;;;;5030878;28;20025;-64
2021/10/22 05:34:48;;;;;;;42.25;30.60;;;15.70;95.60;;;;;;5031366;28;20056;-64
2021/10/22 05:37:13;;;;;;;41.03;30.23;;;15.60;95.80;;;;;;5031503;28;20056;-64
2021/10/22 05:39:39;;;;;;;41.25;29.98;;;15.60;95.80;;;;;;5031256;28;20091;-64
2021/10/22 05:42:05;;;;;;;41.38;30.10;;;15.50;95.60;;;;;;5034289;28;20021;-64
2021/10/22 05:44:30;;;;;;;39.50;29.85;;;15.40;95.80;;;;;;5041098;28;20134;-64
2021/10/22 05:46:57;;;;;;;44.10;31.55;;;15.50;95.70;;;;;;5049542;28;20033;-64
2021/10/22 05:49:23;;;;;;;43.95;31.50;;;15.40;95.80;;;;;;5034699;28;20468;-64
2021/10/22 05:51:51;;;;;;;45.70;31.98;;;15.30;96.30;;;;;;5035654;28;20317;-64
2021/10/22 05:54:16;;;;;;;44.17;29.73;;;15.20;96.30;;;;;;5036907;28;20041;-64
2021/10/22 05:56:42;;;;;;;42.53;30.80;;;15.10;96.50;;;;;;5055398;28;20031;-64
2021/10/22 05:59:08;;;;;;;42.67;30.35;;;15.20;96.50;;;;;;5053370;28;20064;-64
2021/10/22 06:01:34;;;;;;;42.08;29.13;;;15.30;95.50;;;;;;5055234;28;20036;-64
2021/10/22 06:04:00;;;;;;;37.80;27.67;;;15.20;96.20;;;;;;5033548;28;20029;-64
2021/10/22 06:06:26;;;;;;;35.85;27.83;;;15.30;96.10;;;;;;5015794;28;20030;-64
2021/10/22 06:08:52;;;;;;;38.45;27.35;;;15.20;96.20;;;;;;5016166;28;20395;-64
2021/10/22 06:11:18;;;;;;;39.47;28.02;;;15.20;96.20;;;;;;5034132;28;20036;-64
2021/10/22 06:13:44;;;;;;;36.22;26.33;;;15.20;95.60;;;;;;5032786;28;20041;-64
2021/10/22 06:16:11;;;;;;;35.83;27.75;;;15.20;95.90;;;;;;5034571;28;20108;-64
2021/10/22 06:18:46;;;;;;;47.38;31.20;;;15.20;95.70;;;;;;5035171;28;20033;-64
2021/10/22 06:23:54;;;;;;;58.65;38.40;;;15.30;95.90;;;;;;5041456;28;20080;-64
2021/10/22 06:26:21;;;;;;;66.00;38.40;;;15.30;96.00;;;;;;5015273;28;20108;-64
2021/10/22 06:28:47;;;;;;;59.70;37.80;;;15.20;96.20;;;;;;5020887;28;20021;-64
2021/10/22 06:31:13;;;;;;;57.88;37.25;;;15.30;96.20;;;;;;5034461;28;20474;-64
2021/10/22 06:33:40;;;;;;;63.10;37.03;;;15.40;96.10;;;;;;5034609;28;20482;-64
2021/10/22 06:36:07;;;;;;;61.92;38.78;;;15.10;96.90;;;;;;5033741;28;20036;-64
2021/10/22 06:38:32;;;;;;;66.38;39.58;;;15.30;96.50;;;;;;5038540;28;20029;-64
2021/10/22 06:40:58;;;;;;;69.40;40.08;;;15.40;96.40;;;;;;5044927;28;20018;-64
2021/10/22 06:43:24;;;;;;;68.90;38.25;;;15.20;96.70;;;;;;5033381;28;20029;-64
2021/10/22 06:45:56;;;;;;;67.75;38.28;;;15.40;96.40;;;;;;5032421;28;20483;-64
2021/10/22 06:48:22;;;;;;;69.03;39.53;;;15.50;96.10;;;;;;5033954;28;20113;-64
2021/10/22 06:50:47;;;;;;;70.97;37.90;;;15.50;96.00;;;;;;5048669;28;20143;-64
2021/10/22 06:53:13;;;;;;;71.47;39.22;;;15.60;96.00;;;;;;5053178;28;20040;-64
2021/10/22 06:55:39;;;;;;;69.65;38.50;;;15.50;95.80;;;;;;5045690;28;20061;-64
2021/10/22 06:58:06;;;;;;;64.78;38.70;;;15.50;95.60;;;;;;5049461;28;20026;-64
2021/10/22 07:00:32;;;;;;;66.60;40.38;;;15.50;95.70;;;;;;5033301;28;20109;-64
2021/10/22 07:02:58;;;;;;;62.75;38.05;;;15.60;95.70;;;;;;5034065;28;20022;-64
2021/10/22 07:07:58;;;;;;;66.72;40.10;;;15.60;95.70;;;;;;5035070;28;20645;-64
2021/10/22 07:10:24;;;;;;;62.15;38.05;;;15.60;95.60;;;;;;5025974;28;20107;-64
2021/10/22 07:12:49;;;;;;;60.75;38.20;;;15.80;95.60;;;;;;5032513;28;20444;-64
2021/10/22 07:15:15;;;;;;;59.75;37.20;;;15.80;95.80;;;;;;5030694;28;20068;-64
2021/10/22 07:17:45;;;;;;;56.63;35.40;;;15.60;96.00;;;;;;5044692;28;20035;-64
2021/10/22 07:20:12;;;;;;;49.90;34.60;;;15.70;95.90;;;;;;5024376;28;20025;-64
2021/10/22 07:22:48;;;;;;;49.88;33.75;;;15.70;95.70;;;;;;5031738;28;20422;-65
2021/10/22 07:25:14;;;;;;;49.97;34.47;;;15.60;95.90;;;;;;5022291;28;20068;-64
2021/10/22 07:27:40;;;;;;;47.53;34.17;;;15.70;96.00;;;;;;5032932;28;20387;-64
2021/10/22 07:30:06;;;;;;;50.90;34.17;;;15.80;95.50;;;;;;5039362;28;20021;-64
2021/10/22 07:32:32;;;;;;;49.78;34.38;;;15.90;95.30;;;;;;5053090;28;20047;-64
2021/10/22 07:34:58;;;;;;;46.47;34.60;;;15.80;95.50;;;;;;5044246;28;20502;-64
2021/10/22 07:37:23;;;;;;;47.03;34.30;;;15.80;95.60;;;;;;5033361;28;20491;-64
2021/10/22 07:39:49;;;;;;;48.42;35.38;;;15.80;95.60;;;;;;5029394;28;20034;-64
2021/10/22 07:42:15;;;;;;;48.33;35.25;;;15.90;95.60;;;;;;5033021;28;20052;-64
2021/10/22 07:44:44;;;;;;;50.47;34.70;;;15.90;95.30;;;;;;5030135;28;20057;-64
2021/10/22 07:47:09;;;;;;;56.40;36.00;;;15.80;95.20;;;;;;5033610;28;20438;-64
2021/10/22 07:49:35;;;;;;;47.67;34.58;;;15.80;95.40;;;;;;5033490;28;20045;-64
2021/10/22 07:52:01;;;;;;;47.53;34.50;;;15.80;95.20;;;;;;5050283;28;20025;-64
2021/10/22 07:54:27;;;;;;;45.90;33.60;;;15.90;95.20;;;;;;5051042;28;20040;-64
2021/10/22 07:56:52;;;;;;;53.78;37.67;;;15.90;95.00;;;;;;5036442;28;20025;-64
2021/10/22 07:59:18;;;;;;;53.10;35.30;;;15.90;95.10;;;;;;5032940;28;20116;-60
2021/10/22 08:01:44;;;;;;;51.17;36.38;;;16.00;95.00;;;;;;5030478;28;20051;-64
2021/10/22 08:04:11;;;;;;;48.28;34.30;;;16.00;94.90;;;;;;5032940;28;20087;-60
2021/10/22 08:06:38;;;;;;;61.13;38.90;;;16.10;94.50;;;;;;5049094;28;20033;-66
2021/10/22 08:09:05;;;;;;;51.55;35.33;;;16.10;94.50;;;;;;5045790;28;20025;-66
2021/10/22 08:11:30;;;;;;;51.28;34.40;;;16.00;94.50;;;;;;5031366;28;20056;-66
2021/10/22 08:13:56;;;;;;;53.08;33.50;;;16.00;94.40;;;;;;5032923;28;20037;-66
2021/10/22 08:16:22;;;;;;;50.75;32.80;;;15.90;93.90;;;;;;5028998;28;20064;-66
2021/10/22 08:18:48;;;;;;;51.50;33.22;;;16.00;94.20;;;;;;5047810;28;20088;-66
2021/10/22 08:21:34;;;;;;;55.95;35.50;;;16.00;94.10;;;;;;5050240;28;20490;-66
2021/10/22 08:24:00;;;;;;;63.40;38.10;;;16.00;94.00;;;;;;5015732;28;20037;-66
2021/10/22 08:26:26;;;;;;;62.38;39.58;;;16.00;94.10;;;;;;5025320;28;20030;-66
2021/10/22 08:28:51;;;;;;;61.58;39.63;;;16.10;94.20;;;;;;5020755;28;20124;-66
2021/10/22 08:31:17;;;;;;;52.83;34.65;;;16.10;94.20;;;;;;5036380;28;20037;-66
2021/10/22 08:33:43;;;;;;;57.70;36.50;;;16.10;93.60;;;;;;5028781;28;20049;-66
2021/10/22 08:36:10;;;;;;;52.80;34.08;;;16.20;93.80;;;;;;5030114;28;20033;-66
2021/10/22 08:38:35;;;;;;;55.38;37.03;;;16.20;93.80;;;;;;5025996;28;20479;-67
2021/10/22 08:41:01;;;;;;;53.78;36.88;;;16.40;93.80;;;;;;5032279;28;20097;-64
2021/10/22 08:43:28;;;;;;;57.88;37.33;;;16.40;93.80;;;;;;5029341;28;20040;-63
2021/10/22 08:45:55;;;;;;;59.30;36.88;;;16.60;93.90;;;;;;5030959;28;20572;-64
2021/10/22 08:48:22;;;;;;;49.33;33.88;;;16.50;93.80;;;;;;5030616;28;20064;-68
2021/10/22 08:50:49;;;;;;;50.20;35.58;;;16.50;93.60;;;;;;5031424;28;20035;-75
2021/10/22 08:53:15;;;;;;;51.80;33.95;;;16.60;93.90;;;;;;5030977;28;20046;-66
2021/10/22 08:55:41;;;;;;;51.92;35.95;;;16.60;93.60;;;;;;5029439;28;20040;-65
2021/10/22 08:58:07;;;;;;;52.83;36.78;;;16.50;93.70;;;;;;5030282;28;20552;-71
2021/10/22 09:00:33;;;;;;;53.35;38.90;;;16.60;93.50;;;;;;5029304;28;20033;-73
2021/10/22 09:03:11;;;;;;;58.13;38.40;;;16.60;93.50;;;;;;5028751;28;20030;-73
2021/10/22 09:05:38;;;;;;;54.00;37.50;;;16.60;93.80;;;;;;5026847;28;20022;-73
2021/10/22 09:08:05;;;;;;;51.72;36.25;;;16.50;93.20;;;;;;5026055;28;20026;-72
2021/10/22 09:10:33;;;;;;;51.75;36.63;;;16.50;93.80;;;;;;5031735;28;20537;-72
2021/10/22 09:13:01;;;;;;;53.42;35.35;;;16.60;93.40;;;;;;5031276;28;20402;-73
2021/10/22 09:15:28;;;;;;;57.55;38.03;;;16.50;93.40;;;;;;5027659;28;20109;-72
2021/10/22 09:17:58;;;;;;;47.63;33.75;;;16.70;93.30;;;;;;5028969;28;20058;-73
2021/10/22 09:20:26;;;;;;;49.70;33.90;;;16.80;92.90;;;;;;5029257;28;20030;-73
2021/10/22 09:22:57;;;;;;;52.28;36.03;;;16.80;92.80;;;;;;5034703;28;20021;-72
2021/10/22 09:25:25;;;;;;;47.47;32.30;;;16.80;92.40;;;;;;5030590;28;20088;-73
2021/10/22 09:27:57;;;;;;;40.85;28.17;;;16.90;91.90;;;;;;5030477;28;20056;-73
2021/10/22 09:30:38;;;;;;;41.35;28.67;;;16.90;91.60;;;;;;5034432;28;20067;-73
2021/10/22 09:33:16;;;;;;;48.30;30.77;;;16.90;91.20;;;;;;5036149;28;20041;-73
2021/10/22 09:35:44;;;;;;;40.40;26.77;;;16.90;91.10;;;;;;5031455;28;20095;-73
2021/10/22 09:38:25;;;;;;;39.38;27.52;;;16.90;91.30;;;;;;5034049;28;20025;-73
2021/10/22 09:40:56;;;;;;;36.78;26.63;;;17.00;90.00;;;;;;5030320;28;20479;-73
2021/10/22 09:43:30;;;;;;;37.83;25.90;;;17.00;90.10;;;;;;5033339;28;20100;-73
2021/10/22 09:46:14;;;;;;;44.80;26.65;;;17.10;90.00;;;;;;5033858;28;20021;-73
2021/10/22 09:48:43;;;;;;;45.70;25.80;;;17.00;88.20;;;;;;5035702;28;20034;-73
2021/10/22 09:51:22;;;;;;;34.92;25.80;;;17.10;88.90;;;;;;5026021;28;20022;-72
2021/10/22 09:53:48;;;;;;;37.17;24.95;;;17.20;86.80;;;;;;5036646;28;20041;-73
2021/10/22 09:56:26;;;;;;;35.38;24.15;;;17.10;88.00;;;;;;5033884;28;20034;-72
2021/10/22 09:59:03;;;;;;;30.50;23.75;;;17.10;86.60;;;;;;5034704;28;20029;-72
2021/10/22 10:01:41;;;;;;;39.85;25.30;;;17.20;84.70;;;;;;5040552;28;20029;-72
2021/10/22 10:04:09;;;;;;;34.38;22.55;;;17.20;84.20;;;;;;5052743;28;20387;-72
2021/10/22 10:06:39;;;;;;;32.40;22.40;;;17.20;84.20;;;;;;5052128;28;20032;-72
2021/10/22 10:09:08;;;;;;;35.22;24.25;;;17.20;80.20;;;;;;5054709;28;20025;-72
2021/10/22 10:11:36;;;;;;;30.92;22.60;;;17.30;83.40;;;;;;5040469;28;20033;-72
2021/10/22 10:14:02;;;;;;;34.65;22.40;;;17.30;78.60;;;;;;5055096;28;20036;-72
2021/10/22 10:16:29;;;;;;;31.65;21.95;;;17.30;82.00;;;;;;5043905;28;20037;-72
2021/10/22 10:19:03;;;;;;;27.50;19.38;;;17.30;81.70;;;;;;5034629;28;20037;-72
2021/10/22 10:21:42;;;;;;;25.38;16.67;;;17.50;79.90;;;;;;5033008;28;20475;-72
2021/10/22 10:24:10;;;;;;;25.92;17.77;;;17.50;76.30;;;;;;5047369;28;20108;-72
2021/10/22 10:26:36;;;;;;;26.45;16.55;;;17.60;78.50;;;;;;5039272;28;20032;-72
2021/10/22 10:29:08;;;;;;;24.25;18.17;;;17.60;78.60;;;;;;5033601;28;20029;-72
2021/10/22 10:31:42;;;;;;;24.95;18.73;;;17.70;77.10;;;;;;5042317;28;20033;-72
2021/10/22 10:34:27;;;;;;;;;;;17.70;76.00;;;;;;5047369;28;20045;-72
2021/10/22 10:36:54;;;;;;;27.25;17.92;;;17.80;75.90;;;;;;5034278;28;19916;-73
2021/10/22 10:39:38;;;;;;;26.23;18.85;;;17.60;78.30;;;;;;5034868;28;20430;-73
2021/10/22 10:42:26;;;;;;;26.08;18.17;;;17.70;73.40;;;;;;5041667;28;20036;-73
2021/10/22 10:44:53;;;;;;;27.08;18.90;;;17.80;74.70;;;;;;5042621;28;20025;-73
2021/10/22 10:47:42;;;;;;;24.55;18.58;;;17.80;76.00;;;;;;5033350;28;20116;-74
2021/10/22 10:50:09;;;;;;;27.05;18.33;;;17.80;75.60;;;;;;5026186;28;20026;-74
2021/10/22 10:52:39;;;;;;;25.88;19.50;;;17.80;73.00;;;;;;5032536;28;20040;-74
2021/10/22 10:55:14;;;;;;;26.45;19.20;;;17.80;72.50;;;;;;5034642;28;20156;-74
2021/10/22 10:57:47;;;;;;;27.42;19.42;;;17.90;70.10;;;;;;5049975;28;20465;-74
2021/10/22 11:00:15;;;;;;;33.53;20.63;;;17.80;69.80;;;;;;5035102;28;20057;-74
2021/10/22 11:03:02;;;;;;;29.00;19.58;;;17.80;71.50;;;;;;5031574;28;20029;-73
2021/10/22 11:08:30;;;;;;;27.63;20.90;;;17.90;68.20;;;;;;5032520;28;20498;-74
2021/10/22 11:11:15;;;;;;;27.95;20.98;;;18.00;69.80;;;;;;5033273;28;20083;-74
2021/10/22 11:13:59;;;;;;;;;;;18.00;68.70;;;;;;5034544;28;20033;-74
2021/10/22 11:16:41;;;;;;;36.00;23.50;;;18.10;68.70;;;;;;5034008;28;19913;-74
2021/10/22 11:19:12;;;;;;;29.95;22.98;;;18.20;67.90;;;;;;5012968;28;20030;-73
2021/10/22 11:21:44;;;;;;;37.75;24.77;;;18.30;68.30;;;;;;5027772;28;20039;-73
2021/10/22 11:24:23;;;;;;;32.55;24.30;;;18.20;67.80;;;;;;5033864;28;20025;-73
2021/10/22 11:26:54;;;;;;;33.85;25.45;;;18.30;66.70;;;;;;5041385;28;20060;-73
2021/10/22 11:29:22;;;;;;;33.35;24.90;;;18.30;65.70;;;;;;5033622;28;20030;-73
2021/10/22 11:31:56;;;;;;;34.35;26.65;;;18.30;67.60;;;;;;5032861;28;20032;-74
2021/10/22 11:34:24;;;;;;;32.57;25.13;;;18.30;67.00;;;;;;5033292;28;20151;-74
2021/10/22 11:37:11;;;;;;;35.35;24.65;;;18.30;67.60;;;;;;5040361;28;20032;-74
2021/10/22 11:39:50;;;;;;;31.02;25.50;;;18.50;64.50;;;;;;5020996;28;20313;-74
2021/10/22 11:42:17;;;;;;;32.05;23.85;;;18.40;65.70;;;;;;5025770;28;20033;-74
2021/10/22 11:44:50;;;;;;;32.60;25.67;;;18.60;66.20;;;;;;5031760;28;20034;-74
2021/10/22 11:47:29;;;;;;;31.48;24.38;;;18.60;64.80;;;;;;5037589;28;20033;-73
2021/10/22 11:49:55;;;;;;;29.42;22.15;;;18.60;64.00;;;;;;5031461;28;20131;-73
2021/10/22 11:52:21;;;;;;;31.40;22.58;;;18.70;65.40;;;;;;5029124;28;20021;-74
2021/10/22 11:54:49;;;;;;;32.35;23.10;;;18.80;64.70;;;;;;5028320;28;20041;-73
2021/10/22 11:57:15;;;;;;;34.83;26.13;;;18.80;63.90;;;;;;5023186;28;20025;-74
2021/10/22 11:59:49;;;;;;;33.60;25.75;;;18.90;64.30;;;;;;5030252;28;20495;-73
2021/10/22 12:02:15;;;;;;;29.70;23.33;;;19.00;62.60;;;;;;5042949;28;20447;-73
2021/10/22 12:04:41;;;;;;;32.10;22.95;;;19.20;63.40;;;;;;5041811;28;20128;-74
2021/10/22 12:07:10;;;;;;;30.95;23.85;;;19.10;77.70;;;;;;5031787;28;20036;-73
2021/10/22 12:09:38;;;;;;;23.42;20.90;;;19.60;87.60;;;;;;5032737;28;20100;-73
2021/10/22 12:12:12;;;;;;;25.98;20.33;;;19.30;69.70;;;;;;5041551;28;20136;-73
2021/10/22 12:14:49;;;;;;;25.50;19.95;;;19.40;67.70;;;;;;5044527;28;20395;-71
2021/10/22 12:17:25;;;;;;;25.80;20.27;;;19.70;70.50;;;;;;5032080;28;20032;-72
2021/10/22 12:19:53;;;;;;;26.13;20.45;;;19.80;62.60;;;;;;5033115;28;20036;-71
2021/10/22 12:22:29;;;;;;;28.05;21.88;;;19.80;89.00;;;;;;5030240;28;20206;-74
2021/10/22 12:24:57;;;;;;;33.53;24.55;;;19.70;77.10;;;;;;5037170;28;20029;-73
2021/10/22 12:27:27;;;;;;;25.63;21.95;;;19.70;73.00;;;;;;5028147;28;20033;-73
2021/10/22 12:29:54;;;;;;;25.75;21.67;;;19.80;72.40;;;;;;5026782;28;20036;-73
2021/10/22 12:32:43;;;;;;;27.83;22.55;;;19.80;72.40;;;;;;5027458;28;20376;-73
2021/10/22 12:35:20;;;;;;;29.17;22.05;;;19.80;70.90;;;;;;5026395;28;20087;-73
2021/10/22 12:37:59;;;;;;;25.05;22.10;;;19.80;70.90;;;;;;5026910;28;20044;-73
2021/10/22 12:40:49;;;;;;;28.50;21.10;;;19.50;71.30;;;;;;5041732;28;20064;-73
2021/10/22 12:43:19;;;;;;;25.60;20.38;;;19.60;72.10;;;;;;5027543;28;20026;-73
2021/10/22 12:46:03;;;;;;;27.13;20.45;;;19.80;70.80;;;;;;5028189;28;20049;-73